Time;durP1;ratioP1;P1;durP2;ratioP2;P2;SDS_P1;SDS_P2;PMS_P1;PMS_P2;Temp;Humidity;BMP_temperature;BMP_pressure;BME280_temperature;BME280_humidity;BME280_pressure;Samples;Min_cycle;Max_cycle;Signal;HPM_P1;HPM_P2
2020/12/06 00:01:02;;;;;;;26.40;15.07;;;6.10;99.90;;;;;;5065996;28;20483;-62
2020/12/06 00:03:32;;;;;;;19.13;14.03;;;6.00;99.90;;;;;;5066077;28;20856;-62
2020/12/06 00:06:03;;;;;;;22.50;15.23;;;6.00;99.90;;;;;;5066299;28;20493;-63
2020/12/06 00:08:31;;;;;;;20.00;14.53;;;6.00;99.90;;;;;;5065892;28;20486;-62
2020/12/06 00:10:58;;;;;;;21.70;14.50;;;5.90;99.90;;;;;;5067608;28;20447;-61
2020/12/06 00:13:27;;;;;;;22.43;15.80;;;5.90;99.90;;;;;;5068548;28;20476;-62
2020/12/06 00:15:55;;;;;;;21.83;14.73;;;5.80;99.90;;;;;;5068873;28;20475;-61
2020/12/06 00:18:21;;;;;;;24.17;15.00;;;5.80;99.90;;;;;;5067625;28;20451;-60
2020/12/06 00:20:51;;;;;;;26.50;16.67;;;5.80;99.90;;;;;;5066901;28;20537;-62
2020/12/06 00:23:20;;;;;;;22.73;14.87;;;5.80;99.90;;;;;;5068578;28;20455;-60
2020/12/06 00:25:51;;;;;;;22.70;15.80;;;5.80;99.90;;;;;;5066394;28;20455;-61
2020/12/06 00:28:18;;;;;;;23.83;14.97;;;5.70;99.90;;;;;;5070242;28;20448;-61
2020/12/06 00:30:44;;;;;;;22.30;15.27;;;5.70;99.90;;;;;;5069242;28;20448;-63
2020/12/06 00:33:10;;;;;;;23.10;15.67;;;5.70;99.90;;;;;;5056743;28;20455;-60
2020/12/06 00:35:36;;;;;;;22.67;15.77;;;5.70;99.90;;;;;;5055407;28;20451;-61
2020/12/06 00:38:03;;;;;;;21.23;15.10;;;5.70;99.90;;;;;;5055064;28;20455;-60
2020/12/06 00:40:29;;;;;;;24.40;16.37;;;5.70;99.90;;;;;;5055031;28;20455;-61
2020/12/06 00:42:56;;;;;;;23.70;15.87;;;5.60;99.90;;;;;;5054924;28;20487;-60
2020/12/06 00:45:22;;;;;;;25.97;17.10;;;5.60;99.90;;;;;;5054835;28;20516;-61
2020/12/06 00:47:48;;;;;;;26.00;17.07;;;5.60;99.90;;;;;;5055431;28;20451;-61
2020/12/06 00:50:14;;;;;;;24.40;16.57;;;5.60;99.90;;;;;;5055496;28;20459;-60
2020/12/06 00:52:40;;;;;;;28.00;16.03;;;5.50;99.90;;;;;;5055046;28;20509;-61
2020/12/06 00:55:06;;;;;;;24.17;17.67;;;5.50;99.90;;;;;;5055131;28;20486;-60
2020/12/06 00:57:32;;;;;;;26.50;16.67;;;5.50;99.90;;;;;;5055084;28;20858;-61
2020/12/06 00:59:59;;;;;;;25.20;16.47;;;5.50;99.90;;;;;;5054921;28;20509;-61
2020/12/06 01:02:25;;;;;;;24.47;16.30;;;5.50;99.90;;;;;;5054793;28;20475;-61
2020/12/06 01:04:51;;;;;;;29.73;17.33;;;5.50;99.90;;;;;;5054994;28;20447;-62
2020/12/06 01:07:17;;;;;;;27.87;17.23;;;5.50;99.90;;;;;;5054910;28;20516;-62
2020/12/06 01:09:43;;;;;;;28.17;19.20;;;5.50;99.90;;;;;;5054585;28;20451;-61
2020/12/06 01:12:09;;;;;;;28.97;20.07;;;5.50;99.90;;;;;;5054726;28;20451;-62
2020/12/06 01:14:35;;;;;;;29.40;19.60;;;5.50;99.90;;;;;;5054882;28;20839;-61
2020/12/06 01:17:02;;;;;;;32.87;19.47;;;5.60;99.90;;;;;;5054807;28;20451;-63
2020/12/06 01:19:28;;;;;;;33.27;21.13;;;5.60;99.90;;;;;;5054861;28;20459;-63
2020/12/06 01:21:54;;;;;;;31.20;20.07;;;5.60;99.90;;;;;;5054219;28;20960;-62
2020/12/06 01:24:20;;;;;;;30.03;20.50;;;5.60;99.90;;;;;;5054710;28;20493;-63
2020/12/06 01:26:47;;;;;;;38.87;23.90;;;5.70;99.90;;;;;;5054246;28;20946;-61
2020/12/06 01:29:14;;;;;;;30.83;20.77;;;5.70;99.90;;;;;;5055267;28;20505;-63
2020/12/06 01:31:44;;;;;;;33.63;21.63;;;5.80;99.90;;;;;;5055177;28;20845;-62
2020/12/06 01:34:11;;;;;;;33.00;22.10;;;5.90;99.90;;;;;;5054667;28;20451;-65
2020/12/06 01:36:37;;;;;;;30.47;19.93;;;6.00;99.90;;;;;;5058114;28;20451;-64
2020/12/06 01:39:03;;;;;;;32.17;20.97;;;6.00;99.90;;;;;;5058647;28;20525;-63
2020/12/06 01:41:29;;;;;;;34.47;21.87;;;6.10;99.90;;;;;;5058297;28;20475;-63
2020/12/06 01:43:56;;;;;;;35.40;22.20;;;6.10;99.90;;;;;;5058927;28;20857;-62
2020/12/06 01:46:23;;;;;;;34.97;21.60;;;6.20;99.90;;;;;;5059239;28;20508;-62
2020/12/06 01:48:50;;;;;;;35.13;23.40;;;6.30;99.90;;;;;;5058708;28;20459;-66
2020/12/06 01:51:18;;;;;;;33.17;21.50;;;6.40;99.90;;;;;;5059408;28;20793;-63
2020/12/06 01:53:45;;;;;;;33.13;21.83;;;6.40;99.90;;;;;;5061112;28;20454;-63
2020/12/06 01:56:11;;;;;;;34.53;22.10;;;6.40;99.90;;;;;;5059071;28;20513;-63
2020/12/06 01:58:37;;;;;;;33.73;22.10;;;6.50;99.90;;;;;;5058451;28;20533;-63
2020/12/06 02:01:04;;;;;;;35.43;20.30;;;6.50;99.90;;;;;;5058143;28;20511;-63
2020/12/06 02:03:30;;;;;;;34.13;22.47;;;6.50;99.90;;;;;;5058318;28;20839;-62
2020/12/06 02:05:56;;;;;;;32.10;21.40;;;6.60;99.90;;;;;;5058429;28;20454;-63
2020/12/06 02:08:23;;;;;;;35.83;22.77;;;6.60;99.90;;;;;;5058270;28;20451;-62
2020/12/06 02:10:49;;;;;;;35.83;22.50;;;6.60;99.90;;;;;;5058256;28;20771;-63
2020/12/06 02:13:15;;;;;;;37.40;21.47;;;6.60;99.90;;;;;;5058033;28;20454;-63
2020/12/06 02:15:41;;;;;;;62.17;35.00;;;6.70;99.90;;;;;;5057907;28;20517;-63
2020/12/06 02:18:07;;;;;;;36.47;23.90;;;6.70;99.90;;;;;;5057946;28;20764;-63
2020/12/06 02:20:34;;;;;;;38.33;24.40;;;6.70;99.90;;;;;;5058016;28;20451;-62
2020/12/06 02:23:00;;;;;;;45.83;27.47;;;6.70;99.90;;;;;;5057888;28;20486;-62
2020/12/06 02:25:26;;;;;;;35.03;24.23;;;6.70;99.90;;;;;;5057850;28;20455;-61
2020/12/06 02:27:52;;;;;;;35.47;22.43;;;6.80;99.90;;;;;;5057890;28;20528;-63
2020/12/06 02:30:18;;;;;;;34.77;21.60;;;6.80;99.90;;;;;;5057764;28;20458;-62
2020/12/06 02:32:45;;;;;;;37.63;24.10;;;6.80;99.90;;;;;;5057707;28;20483;-61
2020/12/06 02:35:11;;;;;;;31.53;22.30;;;6.80;99.90;;;;;;5057675;28;20451;-63
2020/12/06 02:37:38;;;;;;;31.90;19.80;;;6.90;99.90;;;;;;5057747;28;20816;-63
2020/12/06 02:40:04;;;;;;;40.27;29.13;;;6.90;99.90;;;;;;5058135;28;20470;-64
2020/12/06 02:42:30;;;;;;;42.67;27.30;;;6.90;99.90;;;;;;5057268;28;20518;-63
2020/12/06 02:44:56;;;;;;;44.00;28.20;;;6.90;99.90;;;;;;5057487;28;20517;-66
2020/12/06 02:47:22;;;;;;;33.90;22.97;;;6.90;99.90;;;;;;5056722;28;20455;-63
2020/12/06 02:49:48;;;;;;;34.50;22.00;;;6.90;99.90;;;;;;5057334;28;20459;-63
2020/12/06 02:52:14;;;;;;;26.30;19.20;;;6.90;99.90;;;;;;5057218;28;20451;-63
2020/12/06 02:54:41;;;;;;;34.90;20.63;;;6.90;99.90;;;;;;5057270;28;20779;-63
2020/12/06 02:57:07;;;;;;;44.93;26.57;;;6.90;99.90;;;;;;5057322;28;20455;-63
2020/12/06 02:59:33;;;;;;;36.57;22.93;;;7.00;99.90;;;;;;5057125;28;20452;-63
2020/12/06 03:01:59;;;;;;;38.60;23.43;;;7.00;99.90;;;;;;5057033;28;20474;-62
2020/12/06 03:04:25;;;;;;;38.50;22.13;;;7.00;99.90;;;;;;5057117;28;20517;-63
2020/12/06 03:06:51;;;;;;;36.20;20.97;;;7.00;99.90;;;;;;5057002;28;20827;-62
2020/12/06 03:09:17;;;;;;;40.53;18.63;;;7.00;99.90;;;;;;5057116;28;20455;-65
2020/12/06 03:11:44;;;;;;;28.50;17.73;;;7.00;99.90;;;;;;5056768;28;20494;-62
2020/12/06 03:14:10;;;;;;;32.80;18.67;;;7.00;99.90;;;;;;5057145;28;20783;-63
2020/12/06 03:16:36;;;;;;;29.90;18.20;;;7.00;99.90;;;;;;5056990;28;20525;-62
2020/12/06 03:19:02;;;;;;;23.13;15.97;;;7.00;99.90;;;;;;5056801;28;20780;-63
2020/12/06 03:21:28;;;;;;;25.90;16.90;;;7.00;99.90;;;;;;5056746;28;20474;-63
2020/12/06 03:23:54;;;;;;;23.40;16.90;;;7.00;99.90;;;;;;5056621;28;20513;-61
2020/12/06 03:26:20;;;;;;;29.97;18.90;;;6.90;99.90;;;;;;5056757;28;20554;-63
2020/12/06 03:28:47;;;;;;;26.63;15.83;;;6.90;99.90;;;;;;5056737;28;20542;-62
2020/12/06 03:31:13;;;;;;;24.90;17.20;;;6.90;99.90;;;;;;5056610;28;20447;-62
2020/12/06 03:33:39;;;;;;;25.80;16.23;;;6.90;99.90;;;;;;5056571;28;20521;-62
2020/12/06 03:36:06;;;;;;;27.53;16.30;;;6.90;99.90;;;;;;5056063;28;20581;-61
2020/12/06 03:38:32;;;;;;;35.40;17.57;;;6.90;99.90;;;;;;5056352;28;20455;-62
2020/12/06 03:40:58;;;;;;;34.23;17.13;;;7.00;99.90;;;;;;5056204;28;20451;-61
2020/12/06 03:43:24;;;;;;;23.93;16.33;;;7.00;99.90;;;;;;5056046;28;20506;-63
2020/12/06 03:45:51;;;;;;;25.83;16.47;;;7.00;99.90;;;;;;5056350;28;20467;-62
2020/12/06 03:48:17;;;;;;;24.03;16.57;;;7.00;99.90;;;;;;5057123;28;20516;-63
2020/12/06 03:50:43;;;;;;;26.07;17.03;;;7.00;99.90;;;;;;5059140;28;20841;-63
2020/12/06 03:53:09;;;;;;;25.87;16.57;;;7.00;99.90;;;;;;5061333;28;20447;-63
2020/12/06 03:55:35;;;;;;;24.47;15.90;;;7.10;99.90;;;;;;5062167;28;20893;-62
2020/12/06 03:58:02;;;;;;;26.23;15.63;;;7.10;99.90;;;;;;5062987;28;20456;-63
2020/12/06 04:00:28;;;;;;;25.40;16.50;;;7.10;99.90;;;;;;5060038;28;20451;-64
2020/12/06 04:02:54;;;;;;;24.37;16.00;;;7.10;99.90;;;;;;5058466;28;20479;-62
2020/12/06 04:05:21;;;;;;;23.83;15.47;;;7.20;99.90;;;;;;5057126;28;20466;-62
2020/12/06 04:07:48;;;;;;;22.87;15.57;;;7.20;99.90;;;;;;5056529;28;20451;-62
2020/12/06 04:10:14;;;;;;;24.17;16.10;;;7.20;99.90;;;;;;5056636;28;20451;-62
2020/12/06 04:12:40;;;;;;;24.40;16.10;;;7.20;99.90;;;;;;5056545;28;20532;-62
2020/12/06 04:15:07;;;;;;;22.53;15.83;;;7.30;99.90;;;;;;5056371;28;20974;-62
2020/12/06 04:17:33;;;;;;;23.03;16.60;;;7.30;99.90;;;;;;5056026;28;20459;-63
2020/12/06 04:20:00;;;;;;;25.00;16.90;;;7.30;99.90;;;;;;5056008;28;20455;-63
2020/12/06 04:22:26;;;;;;;29.47;16.70;;;7.30;99.90;;;;;;5056003;28;20537;-62
2020/12/06 04:24:52;;;;;;;23.57;16.27;;;7.30;99.90;;;;;;5055677;28;20516;-62
2020/12/06 04:27:18;;;;;;;24.37;16.27;;;7.30;99.90;;;;;;5055707;28;20459;-62
2020/12/06 04:29:44;;;;;;;22.53;16.87;;;7.30;99.90;;;;;;5055676;28;20779;-61
2020/12/06 04:32:10;;;;;;;28.30;16.60;;;7.30;99.90;;;;;;5055769;28;20458;-63
2020/12/06 04:34:36;;;;;;;20.73;15.37;;;7.30;99.90;;;;;;5055786;28;20451;-62
2020/12/06 04:37:04;;;;;;;21.57;13.70;;;7.30;99.90;;;;;;5055658;28;20515;-61
2020/12/06 04:39:30;;;;;;;19.93;14.80;;;7.30;99.90;;;;;;5055542;28;20824;-63
2020/12/06 04:41:56;;;;;;;25.50;15.97;;;7.20;99.90;;;;;;5055181;28;20874;-63
2020/12/06 04:44:22;;;;;;;22.80;15.57;;;7.20;99.90;;;;;;5056779;28;20841;-66
2020/12/06 04:46:49;;;;;;;28.07;16.80;;;7.20;99.90;;;;;;5057665;28;20455;-63
2020/12/06 04:49:30;;;;;;;27.70;16.90;;;7.20;99.90;;;;;;5055873;28;20532;-62
2020/12/06 04:51:57;;;;;;;28.40;17.40;;;7.20;99.90;;;;;;5055046;28;20826;-62
2020/12/06 04:54:32;;;;;;;27.57;16.73;;;7.20;99.90;;;;;;5055225;28;20455;-62
2020/12/06 04:57:03;;;;;;;26.80;16.10;;;7.20;99.90;;;;;;5055150;28;20772;-62
2020/12/06 04:59:29;;;;;;;24.43;15.97;;;7.20;99.90;;;;;;5054898;28;20446;-63
2020/12/06 05:01:57;;;;;;;23.97;15.87;;;7.20;99.90;;;;;;5055180;28;20479;-62
2020/12/06 05:04:26;;;;;;;24.20;16.00;;;7.20;99.90;;;;;;5055379;28;20506;-63
2020/12/06 05:06:53;;;;;;;25.07;15.27;;;7.10;99.90;;;;;;5055257;28;20512;-67
2020/12/06 05:09:22;;;;;;;23.40;15.63;;;7.20;99.90;;;;;;5054856;28;20455;-63
2020/12/06 05:11:49;;;;;;;25.23;16.97;;;7.20;99.90;;;;;;5054867;28;20554;-63
2020/12/06 05:14:15;;;;;;;25.97;16.33;;;7.20;99.90;;;;;;5054985;28;20470;-63
2020/12/06 05:16:41;;;;;;;25.23;15.77;;;7.20;99.90;;;;;;5054826;28;20482;-63
2020/12/06 05:19:10;;;;;;;23.40;15.57;;;7.20;99.90;;;;;;5054984;28;20836;-63
2020/12/06 05:21:37;;;;;;;23.33;15.03;;;7.10;99.90;;;;;;5056108;28;20936;-63
2020/12/06 05:24:04;;;;;;;26.47;16.77;;;7.20;99.90;;;;;;5056502;28;20982;-66
2020/12/06 05:26:31;;;;;;;23.67;15.63;;;7.20;99.90;;;;;;5056350;28;20455;-63
2020/12/06 05:28:58;;;;;;;24.57;15.33;;;7.20;99.90;;;;;;5055778;28;20451;-62
2020/12/06 05:31:25;;;;;;;25.10;16.90;;;7.20;99.90;;;;;;5055378;28;20524;-62
2020/12/06 05:33:52;;;;;;;24.57;15.77;;;7.20;99.90;;;;;;5056045;28;20451;-63
2020/12/06 05:36:18;;;;;;;25.60;16.73;;;7.20;99.90;;;;;;5054746;28;20528;-63
2020/12/06 05:38:45;;;;;;;25.93;16.67;;;7.20;99.90;;;;;;5054681;28;20451;-63
2020/12/06 05:41:12;;;;;;;24.93;16.70;;;7.20;99.90;;;;;;5054526;28;20455;-63
2020/12/06 05:43:38;;;;;;;25.20;16.33;;;7.20;99.90;;;;;;5054350;28;20811;-63
2020/12/06 05:46:07;;;;;;;26.63;16.73;;;7.20;99.90;;;;;;5054576;28;20455;-63
2020/12/06 05:48:34;;;;;;;23.40;16.27;;;7.20;99.90;;;;;;5054928;28;20516;-63
2020/12/06 05:51:00;;;;;;;24.30;14.40;;;7.20;99.90;;;;;;5054714;28;20459;-63
2020/12/06 05:53:28;;;;;;;22.97;16.30;;;7.20;99.90;;;;;;5054894;28;20455;-62
2020/12/06 05:55:56;;;;;;;22.80;15.37;;;7.20;99.90;;;;;;5056456;28;20455;-62
2020/12/06 05:58:24;;;;;;;23.07;15.93;;;7.20;99.90;;;;;;5054499;28;20455;-63
2020/12/06 06:00:50;;;;;;;28.10;16.73;;;7.20;99.90;;;;;;5057419;28;20451;-63
2020/12/06 06:03:27;;;;;;;22.00;15.30;;;7.20;99.90;;;;;;5058493;28;20490;-63
2020/12/06 06:05:53;;;;;;;24.50;15.00;;;7.30;99.90;;;;;;5059395;28;20443;-63
2020/12/06 06:08:25;;;;;;;23.37;16.60;;;7.30;99.90;;;;;;5059169;28;20459;-62
2020/12/06 06:11:10;;;;;;;24.10;15.27;;;7.30;99.90;;;;;;5058236;28;20564;-63
2020/12/06 06:13:42;;;;;;;24.53;16.17;;;7.20;99.90;;;;;;5054929;28;20516;-63
2020/12/06 06:16:08;;;;;;;22.20;15.20;;;7.30;99.90;;;;;;5054761;28;20469;-63
2020/12/06 06:18:36;;;;;;;22.23;14.87;;;7.30;99.90;;;;;;5055482;28;20451;-63
2020/12/06 06:21:02;;;;;;;25.10;16.20;;;7.30;99.90;;;;;;5054515;28;20459;-63
2020/12/06 06:23:28;;;;;;;23.90;15.10;;;7.30;99.90;;;;;;5057540;28;20496;-63
2020/12/06 06:25:55;;;;;;;27.60;17.47;;;7.30;99.90;;;;;;5058146;28;20898;-63
2020/12/06 06:28:23;;;;;;;27.30;15.40;;;7.30;99.90;;;;;;5058174;28;20451;-63
2020/12/06 06:30:49;;;;;;;25.90;16.50;;;7.30;99.90;;;;;;5058021;28;20485;-64
2020/12/06 06:33:15;;;;;;;25.20;15.20;;;7.30;99.90;;;;;;5057940;28;20869;-63
2020/12/06 06:35:44;;;;;;;22.63;15.13;;;7.30;99.90;;;;;;5057859;28;20516;-63
2020/12/06 06:38:11;;;;;;;24.97;16.07;;;7.30;99.90;;;;;;5058253;28;20512;-64
2020/12/06 06:40:37;;;;;;;31.93;16.17;;;7.30;99.90;;;;;;5057772;28;20489;-64
2020/12/06 06:43:05;;;;;;;20.57;15.23;;;7.30;99.90;;;;;;5057284;28;20482;-62
2020/12/06 06:45:42;;;;;;;22.40;15.70;;;7.30;99.90;;;;;;5057835;28;20532;-63
2020/12/06 06:48:11;;;;;;;21.63;14.30;;;7.30;99.90;;;;;;5057798;28;20757;-62
2020/12/06 06:50:38;;;;;;;20.40;15.07;;;7.30;99.90;;;;;;5057712;28;20485;-63
2020/12/06 06:53:05;;;;;;;23.03;14.27;;;7.30;99.90;;;;;;5057276;28;20455;-63
2020/12/06 06:55:47;;;;;;;22.30;13.87;;;7.30;99.90;;;;;;5057389;28;20482;-63
2020/12/06 06:58:16;;;;;;;23.10;14.90;;;7.30;99.90;;;;;;5057618;28;20749;-63
2020/12/06 07:00:42;;;;;;;23.03;15.23;;;7.30;99.90;;;;;;5057642;28;20509;-63
2020/12/06 07:03:12;;;;;;;23.13;15.27;;;7.40;99.90;;;;;;5057044;28;20540;-62
2020/12/06 07:05:38;;;;;;;26.17;14.30;;;7.40;99.90;;;;;;5057427;28;20491;-63
2020/12/06 07:08:11;;;;;;;21.33;14.07;;;7.40;99.90;;;;;;5057320;28;20788;-62
2020/12/06 07:10:40;;;;;;;19.67;13.47;;;7.40;99.90;;;;;;5057561;28;20807;-63
2020/12/06 07:13:07;;;;;;;19.30;13.97;;;7.40;99.90;;;;;;5057250;28;20448;-62
2020/12/06 07:15:33;;;;;;;23.67;13.90;;;7.40;99.90;;;;;;5057852;28;20451;-63
2020/12/06 07:18:00;;;;;;;19.73;14.53;;;7.40;99.90;;;;;;5058133;28;20451;-64
2020/12/06 07:20:27;;;;;;;23.13;14.30;;;7.50;99.90;;;;;;5057954;28;20781;-63
2020/12/06 07:22:54;;;;;;;23.13;15.13;;;7.50;99.90;;;;;;5057630;28;20486;-63
2020/12/06 07:25:22;;;;;;;18.37;13.47;;;7.50;99.90;;;;;;5058037;28;20462;-64
2020/12/06 07:27:49;;;;;;;22.00;14.00;;;7.50;99.90;;;;;;5058152;28;20621;-67
2020/12/06 07:30:17;;;;;;;19.87;13.37;;;7.50;99.90;;;;;;5058818;28;20459;-63
2020/12/06 07:32:44;;;;;;;20.30;13.80;;;7.50;99.90;;;;;;5057190;28;20459;-63
2020/12/06 07:35:12;;;;;;;20.77;13.60;;;7.60;99.90;;;;;;5056750;28;20829;-63
2020/12/06 07:37:38;;;;;;;23.77;13.70;;;7.60;99.90;;;;;;5057234;28;20990;-64
2020/12/06 07:40:06;;;;;;;19.23;13.10;;;7.60;99.90;;;;;;5057064;28;20463;-67
2020/12/06 07:42:33;;;;;;;22.40;13.60;;;7.70;99.90;;;;;;5056537;28;20487;-69
2020/12/06 07:45:01;;;;;;;19.10;13.60;;;7.70;99.90;;;;;;5057859;28;20459;-63
2020/12/06 07:47:27;;;;;;;19.77;13.60;;;7.70;99.90;;;;;;5057611;28;20455;-63
2020/12/06 07:49:55;;;;;;;19.97;14.00;;;7.80;99.90;;;;;;5057595;28;20913;-63
2020/12/06 07:52:23;;;;;;;18.17;13.47;;;7.80;99.90;;;;;;5057475;28;20920;-63
2020/12/06 07:54:57;;;;;;;17.13;13.17;;;7.80;99.90;;;;;;5057499;28;20837;-64
2020/12/06 07:57:43;;;;;;;19.37;13.70;;;7.90;99.90;;;;;;5057012;28;20447;-63
2020/12/06 08:00:11;;;;;;;20.77;13.00;;;7.90;99.90;;;;;;5055269;28;20474;-65
2020/12/06 08:02:39;;;;;;;16.33;12.50;;;8.00;99.90;;;;;;5055810;28;20575;-63
2020/12/06 08:05:07;;;;;;;17.97;13.00;;;8.00;99.90;;;;;;5056219;28;20470;-63
2020/12/06 08:07:38;;;;;;;19.40;11.57;;;8.10;99.90;;;;;;5055876;28;20975;-63
2020/12/06 08:10:05;;;;;;;16.57;12.30;;;8.10;99.90;;;;;;5056510;28;20801;-63
2020/12/06 08:12:34;;;;;;;17.13;11.30;;;8.20;99.90;;;;;;5056407;28;20520;-63
2020/12/06 08:15:02;;;;;;;19.60;12.90;;;8.20;99.90;;;;;;5055754;28;20924;-64
2020/12/06 08:17:42;;;;;;;20.50;12.73;;;8.30;99.90;;;;;;5056321;28;20459;-63
2020/12/06 08:20:09;;;;;;;17.60;12.10;;;8.30;99.90;;;;;;5056032;28;20501;-63
2020/12/06 08:22:46;;;;;;;21.73;13.13;;;8.40;99.90;;;;;;5055973;28;20478;-62
2020/12/06 08:25:12;;;;;;;21.80;12.07;;;8.50;99.90;;;;;;5056419;28;20856;-62
2020/12/06 08:27:43;;;;;;;24.93;11.63;;;8.50;99.90;;;;;;5055722;28;20516;-63
2020/12/06 08:30:13;;;;;;;16.00;11.10;;;8.50;99.90;;;;;;5056164;28;20748;-62
2020/12/06 08:32:40;;;;;;;15.10;11.63;;;8.60;99.90;;;;;;5055691;28;20416;-63
2020/12/06 08:35:06;;;;;;;16.43;12.03;;;8.60;99.90;;;;;;5056113;28;20489;-63
2020/12/06 08:37:35;;;;;;;14.20;10.60;;;8.70;99.90;;;;;;5055722;28;20836;-64
2020/12/06 08:40:03;;;;;;;15.00;11.50;;;8.70;99.90;;;;;;5055624;28;20900;-63
2020/12/06 08:42:30;;;;;;;15.50;10.73;;;8.80;99.90;;;;;;5055248;28;20923;-64
2020/12/06 08:45:00;;;;;;;15.93;10.70;;;8.80;99.90;;;;;;5055306;28;20470;-62
2020/12/06 08:47:39;;;;;;;15.20;10.37;;;8.90;99.90;;;;;;5056266;28;20516;-63
2020/12/06 08:50:08;;;;;;;15.67;11.30;;;8.90;99.90;;;;;;5055567;28;20439;-62
2020/12/06 08:52:36;;;;;;;16.57;11.30;;;8.90;99.90;;;;;;5055435;28;20452;-62
2020/12/06 08:55:20;;;;;;;19.00;11.20;;;8.90;99.90;;;;;;5055461;28;20516;-63
2020/12/06 08:57:46;;;;;;;15.27;10.57;;;9.00;99.90;;;;;;5055503;28;20451;-63
2020/12/06 09:00:12;;;;;;;14.80;10.97;;;9.00;99.90;;;;;;5055477;28;20451;-62
2020/12/06 09:02:39;;;;;;;16.67;11.57;;;9.00;99.90;;;;;;5055370;28;20964;-63
2020/12/06 09:05:07;;;;;;;17.90;12.10;;;9.00;99.90;;;;;;5055392;28;20573;-63
2020/12/06 09:07:33;;;;;;;16.23;10.97;;;9.00;99.90;;;;;;5055227;28;20509;-63
2020/12/06 09:09:59;;;;;;;16.63;11.43;;;9.00;99.90;;;;;;5055101;28;20451;-63
2020/12/06 09:12:26;;;;;;;14.77;10.47;;;9.10;99.90;;;;;;5055440;28;20451;-63
2020/12/06 09:14:52;;;;;;;14.93;10.90;;;9.10;99.90;;;;;;5055083;28;20455;-62
2020/12/06 09:17:18;;;;;;;16.60;11.77;;;9.10;99.90;;;;;;5055185;28;20519;-62
2020/12/06 09:19:44;;;;;;;16.10;12.07;;;9.10;99.90;;;;;;5055172;28;20485;-62
2020/12/06 09:22:10;;;;;;;12.93;10.03;;;9.20;99.90;;;;;;5055249;28;20513;-63
2020/12/06 09:24:37;;;;;;;13.97;11.57;;;9.20;99.90;;;;;;5055254;28;20455;-62
2020/12/06 09:27:03;;;;;;;16.73;11.80;;;9.20;99.90;;;;;;5055007;28;20837;-63
2020/12/06 09:29:29;;;;;;;16.50;11.50;;;9.20;99.90;;;;;;5055409;28;20767;-62
2020/12/06 09:31:55;;;;;;;15.73;11.27;;;9.30;99.90;;;;;;5056604;28;20509;-63
2020/12/06 09:34:21;;;;;;;14.73;11.03;;;9.40;99.90;;;;;;5055712;28;20451;-63
2020/12/06 09:36:48;;;;;;;16.20;11.77;;;9.40;99.90;;;;;;5054854;28;20929;-63
2020/12/06 09:39:14;;;;;;;14.77;11.50;;;9.40;99.90;;;;;;5055054;28;20455;-62
2020/12/06 09:41:44;;;;;;;16.70;11.80;;;9.50;99.90;;;;;;5055141;28;20516;-62
2020/12/06 09:44:11;;;;;;;19.93;12.53;;;9.50;99.90;;;;;;5054833;28;20489;-62
2020/12/06 09:46:37;;;;;;;16.20;11.40;;;9.60;99.90;;;;;;5055102;28;20454;-63
2020/12/06 09:49:03;;;;;;;15.40;10.80;;;9.70;99.90;;;;;;5055275;28;20832;-61
2020/12/06 09:51:30;;;;;;;16.87;11.60;;;9.70;99.90;;;;;;5055191;28;20512;-62
2020/12/06 09:53:57;;;;;;;15.40;10.87;;;9.70;99.90;;;;;;5054950;28;20455;-62
2020/12/06 09:56:27;;;;;;;17.17;12.03;;;9.70;99.90;;;;;;5055379;28;20451;-62
2020/12/06 09:58:53;;;;;;;19.40;12.77;;;9.80;99.90;;;;;;5059346;28;20512;-62
2020/12/06 10:01:19;;;;;;;16.93;11.30;;;9.90;99.90;;;;;;5059440;28;20512;-62
2020/12/06 10:03:45;;;;;;;17.47;11.87;;;9.90;99.90;;;;;;5058904;28;20558;-61
2020/12/06 10:06:12;;;;;;;13.50;11.10;;;10.00;99.90;;;;;;5058785;28;20481;-62
2020/12/06 10:08:38;;;;;;;15.40;10.87;;;10.00;99.90;;;;;;5061470;28;20455;-62
2020/12/06 10:11:05;;;;;;;15.13;11.30;;;10.00;99.90;;;;;;5061954;28;20788;-63
2020/12/06 10:13:31;;;;;;;16.47;10.83;;;10.10;99.90;;;;;;5060877;28;20451;-62
2020/12/06 10:15:57;;;;;;;17.50;12.00;;;10.20;99.90;;;;;;5059516;28;20772;-62
2020/12/06 10:18:23;;;;;;;12.13;9.67;;;10.20;99.90;;;;;;5060995;28;20909;-63
2020/12/06 10:20:49;;;;;;;14.30;10.73;;;10.30;99.90;;;;;;5059183;28;20451;-62
2020/12/06 10:23:15;;;;;;;13.67;10.60;;;10.50;99.90;;;;;;5059196;28;20474;-63
2020/12/06 10:25:41;;;;;;;11.40;10.07;;;10.50;99.90;;;;;;5058365;28;20947;-64
2020/12/06 10:28:08;;;;;;;18.00;11.57;;;10.60;99.90;;;;;;5058498;28;20833;-61
2020/12/06 10:30:34;;;;;;;14.83;10.00;;;10.60;99.90;;;;;;5058172;28;20485;-63
2020/12/06 10:33:00;;;;;;;15.77;10.43;;;10.70;99.90;;;;;;5058279;28;20904;-63
2020/12/06 10:35:27;;;;;;;14.77;11.37;;;10.70;99.90;;;;;;5058248;28;20458;-63
2020/12/06 10:37:53;;;;;;;13.87;10.13;;;10.80;99.90;;;;;;5058162;28;20450;-62
2020/12/06 10:40:19;;;;;;;15.10;10.73;;;10.90;99.90;;;;;;5057853;28;20935;-62
2020/12/06 10:42:46;;;;;;;14.77;9.53;;;11.00;99.90;;;;;;5057951;28;20494;-63
2020/12/06 10:45:13;;;;;;;13.23;9.57;;;11.00;99.90;;;;;;5058341;28;20483;-63
2020/12/06 10:47:39;;;;;;;13.80;10.23;;;11.10;99.90;;;;;;5058605;28;20459;-63
2020/12/06 10:50:06;;;;;;;11.00;8.70;;;11.20;99.90;;;;;;5057977;28;20597;-62
2020/12/06 10:52:33;;;;;;;15.10;10.70;;;11.30;99.90;;;;;;5058168;28;20520;-62
2020/12/06 10:54:59;;;;;;;13.40;9.63;;;11.40;99.90;;;;;;5057717;28;20454;-63
2020/12/06 10:57:25;;;;;;;14.30;10.03;;;11.40;99.90;;;;;;5058084;28;20469;-62
2020/12/06 10:59:53;;;;;;;12.97;9.40;;;11.50;99.90;;;;;;5057489;28;20455;-62
2020/12/06 11:02:21;;;;;;;11.90;9.47;;;11.50;99.90;;;;;;5058564;28;20479;-62
2020/12/06 11:04:47;;;;;;;13.90;10.67;;;11.70;99.90;;;;;;5058822;28;20489;-61
2020/12/06 11:07:14;;;;;;;12.33;9.60;;;11.70;99.90;;;;;;5057139;28;20470;-64
2020/12/06 11:09:40;;;;;;;11.80;8.77;;;11.80;99.90;;;;;;5056969;28;20463;-64
2020/12/06 11:12:07;;;;;;;13.53;9.57;;;11.80;99.90;;;;;;5057341;28;20781;-64
2020/12/06 11:14:33;;;;;;;12.00;9.17;;;11.90;99.90;;;;;;5059520;28;20459;-64
2020/12/06 11:16:59;;;;;;;12.33;9.33;;;12.00;99.90;;;;;;5058639;28;20900;-65
2020/12/06 11:19:26;;;;;;;10.73;8.87;;;12.10;99.90;;;;;;5058267;28;20469;-64
2020/12/06 11:21:53;;;;;;;12.17;9.20;;;12.10;99.90;;;;;;5057979;28;20447;-65
2020/12/06 11:24:19;;;;;;;12.93;9.30;;;12.20;99.90;;;;;;5057158;28;20456;-65
2020/12/06 11:26:45;;;;;;;11.80;9.30;;;12.30;99.90;;;;;;5057305;28;20489;-65
2020/12/06 11:29:12;;;;;;;11.63;9.17;;;12.40;99.90;;;;;;5057429;28;20452;-64
2020/12/06 11:31:39;;;;;;;12.03;9.63;;;12.40;99.90;;;;;;5057253;28;20459;-64
2020/12/06 11:34:05;;;;;;;12.33;9.43;;;12.50;99.90;;;;;;5056679;28;20455;-68
2020/12/06 11:36:35;;;;;;;13.07;9.13;;;12.60;99.90;;;;;;5057326;28;20524;-64
2020/12/06 11:39:01;;;;;;;15.67;9.77;;;12.60;99.90;;;;;;5057005;28;20462;-65
2020/12/06 11:41:28;;;;;;;12.60;9.33;;;12.60;99.90;;;;;;5058343;28;20447;-64
2020/12/06 11:43:54;;;;;;;12.00;8.50;;;12.60;99.90;;;;;;5059216;28;20479;-63
2020/12/06 11:46:20;;;;;;;11.93;9.90;;;12.70;99.90;;;;;;5059794;28;20459;-64
2020/12/06 11:48:46;;;;;;;13.60;9.70;;;12.70;99.90;;;;;;5060293;28;20516;-63
2020/12/06 11:51:12;;;;;;;12.33;9.40;;;12.70;99.90;;;;;;5061543;28;20455;-65
2020/12/06 11:53:41;;;;;;;15.87;9.17;;;12.60;99.90;;;;;;5060637;28;20451;-64
2020/12/06 11:56:07;;;;;;;11.73;8.87;;;12.60;99.90;;;;;;5057016;28;20463;-65
2020/12/06 11:58:33;;;;;;;11.90;8.87;;;12.70;99.90;;;;;;5056713;28;20455;-64
2020/12/06 12:01:00;;;;;;;13.27;9.10;;;12.90;99.90;;;;;;5056656;28;20459;-65
2020/12/06 12:03:28;;;;;;;16.60;9.00;;;13.10;99.90;;;;;;5056613;28;20860;-64
2020/12/06 12:05:54;;;;;;;14.90;9.80;;;13.30;99.90;;;;;;5056490;28;20490;-64
2020/12/06 12:08:20;;;;;;;14.80;9.23;;;13.50;99.90;;;;;;5057087;28;20482;-65
2020/12/06 12:10:47;;;;;;;11.30;9.17;;;13.60;99.90;;;;;;5059563;28;20513;-64
2020/12/06 12:13:13;;;;;;;12.20;9.63;;;13.70;99.90;;;;;;5056354;28;20455;-64
2020/12/06 12:15:39;;;;;;;10.30;9.13;;;13.70;99.90;;;;;;5056084;28;20455;-65
2020/12/06 12:18:05;;;;;;;11.20;9.20;;;13.80;99.90;;;;;;5056340;28;20824;-64
2020/12/06 12:20:31;;;;;;;11.97;9.13;;;13.80;99.90;;;;;;5056703;28;20454;-65
2020/12/06 12:22:57;;;;;;;11.40;9.73;;;13.80;99.90;;;;;;5055846;28;20525;-64
2020/12/06 12:25:23;;;;;;;11.77;8.70;;;13.90;99.90;;;;;;5055561;28;20979;-65
2020/12/06 12:27:50;;;;;;;9.93;8.50;;;13.90;99.90;;;;;;5055976;28;20820;-64
2020/12/06 12:30:16;;;;;;;12.80;10.17;;;13.90;99.90;;;;;;5056819;28;20447;-63
2020/12/06 12:32:42;;;;;;;12.10;9.23;;;13.90;99.90;;;;;;5056128;28;20974;-65
2020/12/06 12:35:08;;;;;;;12.57;9.60;;;13.90;99.90;;;;;;5057013;28;20532;-64